Pocatello, ID

11:46 PM MST on January 18, 2017 (GMT -0700)
Bonneville Park | | Change Station
Active Advisory: Winter Weather Advisory

Elev 4606 ft 42.87 °N, 112.43 °W | Updated 4 minutes ago

Snow
Snow
28.2 °F
Feels Like 20 °F
N
8.3
Wind Variable Wind from ENE

Today
High -- | Low -- °F
--% Chance of Precip.
Yesterday
High -- | Low -- °F
Precip. -- in
Pressure 29.82 in
Visibility 1.5 miles
Clouds Mostly Cloudy 1700 ft
Mostly Cloudy 2400 ft
Overcast 3200 ft
Windchill 20 °F
Dew Point 25 °F
Humidity 88%
Rainfall 0.00 in
Snow Depth Not available.
7:56 AM 5:25 PM
Waning Gibbous, 56% visible
SPECI KPIH 190619Z AUTO 02006KT 1 1/2SM -SN BR BKN017 BKN024 OVC032 M06/M07 A2982 RMK AO2 P0001 T10561067 $
Pressure 29.82 in
Visibility 1.5 miles
Clouds Mostly Cloudy 1700 ft
Mostly Cloudy 2400 ft
Overcast 3200 ft
Windchill 20 °F
Dew Point 25 °F
Humidity 88%
Rainfall 0.00 in
Snow Depth Not available.
7:56 AM 5:25 PM
Waning Gibbous, 56% visible
SPECI KPIH 190619Z AUTO 02006KT 1 1/2SM -SN BR BKN017 BKN024 OVC032 M06/M07 A2982 RMK AO2 P0001 T10561067 $

Get Your Daily Forecast Email!

Thanks for signing up!

Be on the lookout for a verification email in your inbox.

You'll start receiving the daily forecast at 8 AM.

×

10-Day Weather Forecast

Almanac

Astronomy

Jan. 18, 2017 Rise Set
Actual Time
Civil Twilight
Nautical Twilight
Astronomical Twilight
Moon
Length of Visible Light
Length of Day
Tomorrow will be .
, % of the Moon is Illuminated

Today's Extremes

State Highs State Lows

Community

WunderPhotos

Upload Photos

1,962,540 photos uploaded!

WunderBlog® & News

Nearby

Air Quality

  Air Quality AQ Index Pollutant
Not available.

Snow Depth

Station Depth Elevation

Earthquake Activity

City Distance Mag. Time & Date
Minimum magnitude displayed is 2.5.

Coastal Water Temperatures

Place Temperature

Stations

Nearby Weather Stations

Station Location Temp. Windchill Dew Point Humidity Wind Precip. Elev Updated Type
                   

Watches & Warnings

Winter Weather Advisory
Issued: 1:23 PM MST Jan. 18, 2017 – National Weather Service

... Winter Weather Advisory in effect from 5 am to 9 PM MST
Thursday...

The National Weather Service in Pocatello has issued a Winter
Weather Advisory for snow, which is in effect from 5 am to 9 PM
MST Thursday.

* Impacts... moderate to heavy snow will result in difficult travel
due to slick surfaces and reduced visibility.

* Timing... early Thursday morning through Thursday evening.

* Snow accumulations... two to four inches. Brief period of
freezing rain possible Thursday morning.

* Confidence... moderate to high confidence on timing and snow
amounts. Low confidence on freezing rain.

* Locations... Pocatello... Chubbuck... American Falls... Idaho Falls
... Rexburg.

Precautionary/preparedness actions...

A Winter Weather Advisory for snow means that periods of snow
will cause primarily travel difficulties. Be prepared for snow
covered roads and limited visibilities, and use caution while
driving.